Time;durP1;ratioP1;P1;durP2;ratioP2;P2;SDS_P1;SDS_P2;PMS_P1;PMS_P2;Temp;Humidity;BMP_temperature;BMP_pressure;BME280_temperature;BME280_humidity;BME280_pressure;Samples;Min_cycle;Max_cycle;Signal;HPM_P1;HPM_P2
2023/09/30 00:01:10;;;;;;;12.80;2.83;;;11.50;99.90;;;;;;5112937;27;20529;-62
2023/09/30 00:03:36;;;;;;;8.05;2.88;;;11.50;99.90;;;;;;5130846;27;20059;-62
2023/09/30 00:06:03;;;;;;;10.57;2.78;;;11.50;99.90;;;;;;5129807;27;20039;-62
2023/09/30 00:08:29;;;;;;;10.40;2.90;;;11.50;99.90;;;;;;5093646;27;20418;-62
2023/09/30 00:10:55;;;;;;;10.90;3.03;;;11.50;99.90;;;;;;5113687;27;20046;-62
2023/09/30 00:13:21;;;;;;;9.85;2.70;;;11.50;99.90;;;;;;5112863;27;20118;-62
2023/09/30 00:15:47;;;;;;;7.95;2.92;;;11.50;99.90;;;;;;5113030;27;20136;-62
2023/09/30 00:18:13;;;;;;;12.15;2.78;;;11.40;99.90;;;;;;5130159;27;20074;-63
2023/09/30 00:20:39;;;;;;;8.05;2.78;;;11.40;99.90;;;;;;5130676;27;20039;-62
2023/09/30 00:23:05;;;;;;;9.32;2.90;;;11.40;99.90;;;;;;5130494;27;20121;-62
2023/09/30 00:25:32;;;;;;;6.80;2.50;;;11.40;99.90;;;;;;5111770;27;20053;-62
2023/09/30 00:27:57;;;;;;;12.75;2.85;;;11.40;99.90;;;;;;5130253;27;20042;-62
2023/09/30 00:30:23;;;;;;;7.07;2.70;;;11.40;99.90;;;;;;5130241;27;20397;-62
2023/09/30 00:32:49;;;;;;;8.07;2.70;;;11.30;99.90;;;;;;5111815;27;20031;-62
2023/09/30 00:35:16;;;;;;;11.18;3.00;;;11.30;99.90;;;;;;5111938;27;20047;-62
2023/09/30 00:37:42;;;;;;;8.27;2.75;;;11.30;99.90;;;;;;5129764;27;20489;-62
2023/09/30 00:40:12;;;;;;;8.48;2.70;;;11.40;99.90;;;;;;5127032;27;20456;-62
2023/09/30 00:42:38;;;;;;;7.53;2.42;;;11.40;99.90;;;;;;5112255;27;20038;-62
2023/09/30 00:45:05;;;;;;;8.65;2.83;;;11.40;99.90;;;;;;5130678;27;20038;-62
2023/09/30 00:47:31;;;;;;;8.10;2.58;;;11.40;99.90;;;;;;5111858;27;20096;-62
2023/09/30 00:49:57;;;;;;;8.65;3.40;;;11.40;99.90;;;;;;5129827;27;20470;-62
2023/09/30 00:52:23;;;;;;;10.13;3.33;;;11.40;99.90;;;;;;5129572;27;20091;-62
2023/09/30 00:54:50;;;;;;;11.15;3.20;;;11.40;99.90;;;;;;5111105;27;20093;-62
2023/09/30 00:57:19;;;;;;;10.13;3.28;;;11.40;99.90;;;;;;5113259;27;20046;-62
2023/09/30 00:59:45;;;;;;;11.95;3.67;;;11.50;99.90;;;;;;5111990;28;20126;-62
2023/09/30 01:02:11;;;;;;;11.75;3.92;;;11.50;99.90;;;;;;5112853;27;20114;-62
2023/09/30 01:04:38;;;;;;;14.35;3.50;;;11.50;99.90;;;;;;5095329;28;20043;-62
2023/09/30 01:07:05;;;;;;;14.73;3.97;;;11.50;99.90;;;;;;5112641;28;20051;-62
2023/09/30 01:09:31;;;;;;;13.23;3.95;;;11.50;99.90;;;;;;5095492;28;20111;-62
2023/09/30 01:11:56;;;;;;;12.43;3.83;;;11.50;99.90;;;;;;5112554;28;20046;-61
2023/09/30 01:14:37;;;;;;;10.73;3.78;;;11.50;99.90;;;;;;5112955;28;20032;-62
2023/09/30 01:17:03;;;;;;;11.50;3.40;;;11.50;99.90;;;;;;5095725;28;20035;-61
2023/09/30 01:19:29;;;;;;;10.50;3.70;;;11.50;99.90;;;;;;5094904;28;20545;-61
2023/09/30 01:22:05;;;;;;;11.55;3.38;;;11.50;99.90;;;;;;5111867;28;20050;-61
2023/09/30 01:24:31;;;;;;;10.38;3.65;;;11.60;99.90;;;;;;5112383;28;20047;-62
2023/09/30 01:26:57;;;;;;;12.20;3.55;;;11.60;99.90;;;;;;5095604;28;20085;-62
2023/09/30 01:29:25;;;;;;;13.38;3.40;;;11.50;99.90;;;;;;5112232;28;20039;-62
2023/09/30 01:31:51;;;;;;;9.95;2.80;;;11.50;99.90;;;;;;5112324;28;20486;-62
2023/09/30 01:34:17;;;;;;;7.93;2.78;;;11.60;99.90;;;;;;5112451;28;20054;-62
2023/09/30 01:36:43;;;;;;;11.43;3.20;;;11.60;99.90;;;;;;5131065;28;20482;-62
2023/09/30 01:39:13;;;;;;;8.02;3.00;;;11.50;99.90;;;;;;5111325;28;20184;-62
2023/09/30 01:41:39;;;;;;;9.07;3.30;;;11.50;99.90;;;;;;5130527;28;20058;-62
2023/09/30 01:44:05;;;;;;;10.88;3.50;;;11.60;99.90;;;;;;5130746;28;20034;-62
2023/09/30 01:46:31;;;;;;;10.80;3.20;;;11.60;99.90;;;;;;5112331;28;20035;-62
2023/09/30 01:48:57;;;;;;;11.70;3.83;;;11.50;99.90;;;;;;5095153;28;20164;-62
2023/09/30 01:51:23;;;;;;;11.88;3.72;;;11.50;99.90;;;;;;5130941;28;20114;-62
2023/09/30 01:53:49;;;;;;;15.32;3.78;;;11.50;99.90;;;;;;5112320;28;20420;-61
2023/09/30 01:56:14;;;;;;;13.25;3.53;;;11.50;99.90;;;;;;5112046;28;20038;-62
2023/09/30 01:58:40;;;;;;;9.68;2.90;;;11.40;99.90;;;;;;5112008;28;20039;-62
2023/09/30 02:01:06;;;;;;;11.10;3.70;;;11.50;99.90;;;;;;5130190;28;20418;-62
2023/09/30 02:03:32;;;;;;;8.50;2.67;;;11.40;99.90;;;;;;5130090;27;20082;-61
2023/09/30 02:05:58;;;;;;;10.52;2.85;;;11.50;99.90;;;;;;5133402;27;20081;-61
2023/09/30 02:08:24;;;;;;;6.88;3.13;;;11.40;99.90;;;;;;5134458;27;20099;-62
2023/09/30 02:10:53;;;;;;;11.45;3.38;;;11.40;99.90;;;;;;5134242;27;20035;-62
2023/09/30 02:13:19;;;;;;;8.45;3.05;;;11.40;99.90;;;;;;5113535;27;20043;-61
2023/09/30 02:15:45;;;;;;;9.20;3.00;;;11.40;99.90;;;;;;5116885;27;20061;-62
2023/09/30 02:18:12;;;;;;;13.95;3.67;;;11.30;99.90;;;;;;5115122;27;20091;-62
2023/09/30 02:20:40;;;;;;;9.52;3.20;;;11.40;99.90;;;;;;5115790;27;20046;-62
2023/09/30 02:23:07;;;;;;;9.65;3.22;;;11.30;99.90;;;;;;5113769;27;20043;-62
2023/09/30 02:25:33;;;;;;;9.02;3.45;;;11.30;99.90;;;;;;5114995;27;20459;-61
2023/09/30 02:28:00;;;;;;;10.25;2.88;;;11.30;99.90;;;;;;5116149;27;20069;-62
2023/09/30 02:30:27;;;;;;;8.38;2.97;;;11.30;99.90;;;;;;5113852;27;20032;-61
2023/09/30 02:32:53;;;;;;;9.50;3.08;;;11.30;99.90;;;;;;5114374;27;20039;-62
2023/09/30 02:35:20;;;;;;;9.30;3.30;;;11.30;99.90;;;;;;5114962;27;20043;-62
2023/09/30 02:37:46;;;;;;;9.32;3.20;;;11.30;99.90;;;;;;5097405;27;20043;-62
2023/09/30 02:40:14;;;;;;;11.07;3.15;;;11.30;99.90;;;;;;5114729;27;20595;-61
2023/09/30 02:42:40;;;;;;;9.70;3.15;;;11.30;99.90;;;;;;5114822;27;20096;-62
2023/09/30 02:45:10;;;;;;;7.38;3.10;;;11.30;99.90;;;;;;5114762;27;20126;-62
2023/09/30 02:47:36;;;;;;;13.02;3.65;;;11.30;99.90;;;;;;5133371;27;20050;-62
2023/09/30 02:50:04;;;;;;;8.65;3.42;;;11.30;99.90;;;;;;5133686;27;20035;-61
2023/09/30 02:52:31;;;;;;;8.05;3.25;;;11.30;99.90;;;;;;5133321;27;20047;-61
2023/09/30 02:54:57;;;;;;;11.02;3.70;;;11.20;99.90;;;;;;5097342;27;20051;-61
2023/09/30 02:57:24;;;;;;;11.13;3.40;;;11.30;99.90;;;;;;5114672;27;20043;-62
2023/09/30 02:59:51;;;;;;;9.02;3.67;;;11.30;99.90;;;;;;5115309;27;20385;-62
2023/09/30 03:02:18;;;;;;;8.75;2.90;;;11.30;99.90;;;;;;5114731;27;20126;-61
2023/09/30 03:04:44;;;;;;;6.75;2.90;;;11.30;99.90;;;;;;5114237;27;20070;-61
2023/09/30 03:07:10;;;;;;;12.13;3.65;;;11.30;99.90;;;;;;5114560;27;20108;-61
2023/09/30 03:09:36;;;;;;;9.32;3.42;;;11.20;99.90;;;;;;5114709;27;20035;-62
2023/09/30 03:12:04;;;;;;;8.23;3.38;;;11.30;99.90;;;;;;5114809;27;20091;-61
2023/09/30 03:14:31;;;;;;;8.68;3.85;;;11.30;99.90;;;;;;5132758;27;20105;-61
2023/09/30 03:16:59;;;;;;;7.20;3.38;;;11.20;99.90;;;;;;5113967;27;20027;-62
2023/09/30 03:19:25;;;;;;;11.25;3.50;;;11.20;99.90;;;;;;5114367;27;20476;-61
2023/09/30 03:21:51;;;;;;;7.22;3.33;;;11.20;99.90;;;;;;5113871;27;20131;-62
2023/09/30 03:24:16;;;;;;;7.72;2.92;;;11.20;99.90;;;;;;5132792;27;20031;-62
2023/09/30 03:26:42;;;;;;;8.32;3.60;;;11.20;99.90;;;;;;5112224;27;20065;-62
2023/09/30 03:29:11;;;;;;;8.35;3.28;;;11.10;99.90;;;;;;5117228;27;20070;-62
2023/09/30 03:31:36;;;;;;;7.90;3.10;;;11.10;99.90;;;;;;5131851;27;20039;-62
2023/09/30 03:34:06;;;;;;;8.93;3.38;;;11.10;99.90;;;;;;5112494;27;20434;-61
2023/09/30 03:36:31;;;;;;;8.88;3.92;;;11.10;99.90;;;;;;5113746;27;20129;-62
2023/09/30 03:39:05;;;;;;;11.05;4.22;;;11.10;99.90;;;;;;5131081;27;20138;-62
2023/09/30 03:41:32;;;;;;;9.80;3.80;;;11.10;99.90;;;;;;5114618;27;20050;-62
2023/09/30 03:43:58;;;;;;;11.30;4.22;;;11.10;99.90;;;;;;5114667;27;20070;-63
2023/09/30 03:46:23;;;;;;;9.13;3.53;;;11.10;99.90;;;;;;5113840;27;20070;-62
2023/09/30 03:48:50;;;;;;;9.85;3.67;;;11.10;99.90;;;;;;5113465;27;20114;-62
2023/09/30 03:51:15;;;;;;;10.55;4.18;;;11.10;99.90;;;;;;5114045;27;20127;-63
2023/09/30 03:53:42;;;;;;;6.78;3.40;;;11.10;99.90;;;;;;5113948;27;20035;-62
2023/09/30 03:56:08;;;;;;;9.05;3.80;;;11.00;99.90;;;;;;5131852;27;20118;-62
2023/09/30 03:58:34;;;;;;;9.73;4.00;;;11.00;99.90;;;;;;5095482;27;20127;-62
2023/09/30 04:01:00;;;;;;;13.07;4.35;;;11.00;99.90;;;;;;5131908;27;20046;-62
2023/09/30 04:03:27;;;;;;;10.10;4.00;;;11.00;99.90;;;;;;5113331;27;20039;-62
2023/09/30 04:05:53;;;;;;;12.65;4.05;;;11.00;99.90;;;;;;5113400;27;20050;-62
2023/09/30 04:08:19;;;;;;;14.52;4.22;;;11.00;99.90;;;;;;5113358;27;20035;-62
2023/09/30 04:10:45;;;;;;;9.90;3.95;;;11.10;99.90;;;;;;5113338;27;20446;-62
2023/09/30 04:13:11;;;;;;;9.90;3.85;;;11.10;99.90;;;;;;5129939;27;20493;-62
2023/09/30 04:15:37;;;;;;;8.88;3.85;;;11.10;99.90;;;;;;5112480;27;20879;-62
2023/09/30 04:18:05;;;;;;;10.18;4.13;;;11.10;99.90;;;;;;5112090;27;20118;-62
2023/09/30 04:20:31;;;;;;;9.00;3.60;;;11.10;99.90;;;;;;5095599;27;20039;-62
2023/09/30 04:22:57;;;;;;;10.85;4.60;;;11.00;99.90;;;;;;5095889;27;20027;-62
2023/09/30 04:25:24;;;;;;;11.40;4.47;;;11.10;99.90;;;;;;5113208;27;20034;-62
2023/09/30 04:27:50;;;;;;;8.98;4.22;;;11.10;99.90;;;;;;5112934;27;20104;-62
2023/09/30 04:30:17;;;;;;;10.70;4.68;;;11.10;99.90;;;;;;5129707;27;20031;-63
2023/09/30 04:32:43;;;;;;;12.85;4.68;;;11.10;99.90;;;;;;5112511;27;20110;-62
2023/09/30 04:35:09;;;;;;;14.32;6.05;;;11.10;99.90;;;;;;5111852;27;20041;-62
2023/09/30 04:37:36;;;;;;;14.55;5.72;;;11.10;99.90;;;;;;5113291;27;20106;-62
2023/09/30 04:40:15;;;;;;;12.90;5.07;;;11.20;99.90;;;;;;5112685;27;20038;-62
2023/09/30 04:42:44;;;;;;;10.93;4.88;;;11.10;99.90;;;;;;5131450;27;20038;-62
2023/09/30 04:45:10;;;;;;;16.40;5.70;;;11.10;99.90;;;;;;5130171;27;20119;-63
2023/09/30 04:47:38;;;;;;;12.35;5.55;;;11.10;99.90;;;;;;5130803;27;20047;-62
2023/09/30 04:50:08;;;;;;;10.23;4.82;;;11.10;99.90;;;;;;5125664;27;20039;-62
2023/09/30 04:52:34;;;;;;;13.15;6.07;;;11.10;99.90;;;;;;5127969;27;20086;-62
2023/09/30 04:55:00;;;;;;;10.98;4.72;;;11.10;99.90;;;;;;5110915;27;20047;-63
2023/09/30 04:57:26;;;;;;;11.48;5.15;;;11.10;99.90;;;;;;5112341;28;20047;-62
2023/09/30 04:59:52;;;;;;;10.05;5.35;;;11.20;99.90;;;;;;5112742;27;20043;-62
2023/09/30 05:02:18;;;;;;;10.15;5.43;;;11.10;99.90;;;;;;5111594;28;20039;-62
2023/09/30 05:04:44;;;;;;;12.20;5.40;;;11.10;99.90;;;;;;5111313;27;20047;-62
2023/09/30 05:07:10;;;;;;;10.65;5.53;;;11.10;99.90;;;;;;5112040;28;20042;-62
2023/09/30 05:09:36;;;;;;;11.45;5.35;;;11.10;99.90;;;;;;5094707;28;20031;-62
2023/09/30 05:12:04;;;;;;;11.23;5.00;;;11.10;99.90;;;;;;5111677;28;20077;-62
2023/09/30 05:14:30;;;;;;;9.65;4.82;;;11.10;99.90;;;;;;5111244;28;20095;-62
2023/09/30 05:16:56;;;;;;;15.98;6.30;;;11.10;99.90;;;;;;5112322;28;20525;-62
2023/09/30 05:19:22;;;;;;;11.70;5.38;;;11.10;99.90;;;;;;5130393;28;20042;-63
2023/09/30 05:21:48;;;;;;;8.38;4.93;;;11.10;99.90;;;;;;5094636;28;20045;-62
2023/09/30 05:24:14;;;;;;;9.60;5.05;;;11.10;99.90;;;;;;5112538;28;20088;-63
2023/09/30 05:26:40;;;;;;;8.85;4.95;;;11.10;99.90;;;;;;5129347;28;20041;-62
2023/09/30 05:29:07;;;;;;;11.07;5.05;;;11.10;99.90;;;;;;5131043;28;20035;-62
2023/09/30 05:31:33;;;;;;;10.70;5.63;;;11.10;99.90;;;;;;5112728;28;20493;-63
2023/09/30 05:33:58;;;;;;;9.20;5.38;;;11.10;99.90;;;;;;5112087;28;20034;-62
2023/09/30 05:36:24;;;;;;;9.63;5.32;;;11.00;99.90;;;;;;5112345;28;20363;-62
2023/09/30 05:38:50;;;;;;;8.75;4.88;;;11.00;99.90;;;;;;5112752;27;20027;-62
2023/09/30 05:41:16;;;;;;;8.80;5.05;;;11.00;99.90;;;;;;5115653;27;20088;-62
2023/09/30 05:43:43;;;;;;;8.73;5.50;;;11.00;99.90;;;;;;5116047;27;20043;-62
2023/09/30 05:46:09;;;;;;;8.95;4.78;;;10.90;99.90;;;;;;5115763;27;20074;-62
2023/09/30 05:48:35;;;;;;;9.55;5.15;;;10.90;99.90;;;;;;5116550;27;20460;-62
2023/09/30 05:51:01;;;;;;;9.50;5.15;;;10.90;99.90;;;;;;5113738;27;20042;-63
2023/09/30 05:53:28;;;;;;;9.20;5.70;;;10.90;99.90;;;;;;5134410;27;20041;-62
2023/09/30 05:55:54;;;;;;;10.98;5.22;;;10.80;99.90;;;;;;5130930;27;20100;-62
2023/09/30 05:58:20;;;;;;;12.32;5.43;;;10.80;99.90;;;;;;5131016;27;20039;-62
2023/09/30 06:00:46;;;;;;;10.57;5.60;;;10.80;99.90;;;;;;5112124;27;20074;-63
2023/09/30 06:03:11;;;;;;;10.75;5.50;;;10.80;99.90;;;;;;5123717;27;20545;-64
2023/09/30 06:05:41;;;;;;;8.10;5.13;;;10.70;99.90;;;;;;5090771;27;20050;-62
2023/09/30 06:08:13;;;;;;;8.57;5.30;;;10.80;99.90;;;;;;5108781;27;20715;-62
2023/09/30 06:10:43;;;;;;;12.23;5.75;;;10.70;99.90;;;;;;5109074;27;20035;-62
2023/09/30 06:13:12;;;;;;;13.80;5.22;;;10.80;99.90;;;;;;5109516;27;20078;-63
2023/09/30 06:15:40;;;;;;;11.23;6.00;;;10.80;99.90;;;;;;5113294;27;20055;-62
2023/09/30 06:18:06;;;;;;;9.40;6.07;;;10.90;99.90;;;;;;5127807;27;20120;-62
2023/09/30 06:20:31;;;;;;;12.50;6.30;;;10.90;99.90;;;;;;5120527;27;20115;-62
2023/09/30 06:22:57;;;;;;;12.43;5.43;;;10.90;99.90;;;;;;5107829;27;20492;-62
2023/09/30 06:25:27;;;;;;;11.90;6.57;;;11.00;99.90;;;;;;5110589;27;20041;-62
2023/09/30 06:27:56;;;;;;;10.52;6.30;;;11.00;99.90;;;;;;5107861;27;20039;-63
2023/09/30 06:30:29;;;;;;;13.23;7.32;;;11.00;99.90;;;;;;5109854;27;20510;-62
2023/09/30 06:32:59;;;;;;;12.27;6.55;;;11.10;99.90;;;;;;5126167;27;20061;-62
2023/09/30 06:35:26;;;;;;;14.27;7.63;;;11.20;99.90;;;;;;5095174;27;20111;-63
2023/09/30 06:37:52;;;;;;;14.68;7.30;;;11.30;99.90;;;;;;5114914;27;20039;-63
2023/09/30 06:40:18;;;;;;;16.40;7.93;;;11.40;99.90;;;;;;5114597;27;20042;-62
2023/09/30 06:42:44;;;;;;;15.40;7.63;;;11.50;99.90;;;;;;5115268;27;20038;-63
2023/09/30 06:45:10;;;;;;;14.63;7.40;;;11.60;99.90;;;;;;5115091;27;20031;-63
2023/09/30 06:47:37;;;;;;;14.27;8.32;;;11.70;99.90;;;;;;5114549;27;20118;-63
2023/09/30 06:50:07;;;;;;;13.45;7.63;;;11.80;99.90;;;;;;5113548;27;20051;-63
2023/09/30 06:52:38;;;;;;;12.30;7.47;;;11.80;99.90;;;;;;5132661;27;20049;-63
2023/09/30 06:55:05;;;;;;;13.27;7.93;;;11.90;99.90;;;;;;5115027;27;20039;-62
2023/09/30 06:57:36;;;;;;;18.50;8.27;;;11.90;99.90;;;;;;5114540;27;20046;-63
2023/09/30 07:00:12;;;;;;;18.58;8.15;;;12.00;99.90;;;;;;5114652;27;20075;-64
2023/09/30 07:02:40;;;;;;;17.25;8.57;;;12.20;99.90;;;;;;5132158;27;20781;-64
2023/09/30 07:05:10;;;;;;;14.70;8.32;;;12.20;99.90;;;;;;5114553;27;20505;-63
2023/09/30 07:07:35;;;;;;;14.93;8.80;;;12.20;99.90;;;;;;5114447;27;20455;-63
2023/09/30 07:10:01;;;;;;;14.35;8.60;;;12.20;99.90;;;;;;5111838;27;20043;-64
2023/09/30 07:12:27;;;;;;;14.70;8.88;;;12.20;99.90;;;;;;5131732;27;20200;-63
2023/09/30 07:14:53;;;;;;;14.95;8.40;;;12.20;99.90;;;;;;5114704;27;20543;-62
2023/09/30 07:17:19;;;;;;;17.67;8.75;;;12.20;99.90;;;;;;5114253;27;20039;-63
2023/09/30 07:19:44;;;;;;;15.63;8.98;;;12.20;99.90;;;;;;5113163;27;20462;-63
2023/09/30 07:22:10;;;;;;;15.48;9.02;;;12.20;99.90;;;;;;5112605;27;20047;-63
2023/09/30 07:24:35;;;;;;;17.40;9.85;;;12.20;99.90;;;;;;5096297;27;20066;-63
2023/09/30 07:27:02;;;;;;;16.83;9.55;;;12.20;99.90;;;;;;5113972;27;20039;-63
2023/09/30 07:29:28;;;;;;;18.35;9.90;;;12.40;99.90;;;;;;5114038;27;20043;-63
2023/09/30 07:31:53;;;;;;;18.88;10.23;;;12.60;99.90;;;;;;5112090;27;20043;-63
2023/09/30 07:34:19;;;;;;;19.33;10.10;;;12.70;99.90;;;;;;5131513;27;20398;-63
2023/09/30 07:36:45;;;;;;;17.92;10.60;;;12.80;99.90;;;;;;5113757;27;20414;-63
2023/09/30 07:39:11;;;;;;;17.55;10.15;;;12.90;99.90;;;;;;5111658;27;20055;-63
2023/09/30 07:41:37;;;;;;;18.30;10.70;;;13.00;99.90;;;;;;5108257;27;20132;-63
2023/09/30 07:44:03;;;;;;;15.35;9.70;;;13.20;99.90;;;;;;5096044;27;20480;-63
2023/09/30 07:46:28;;;;;;;18.85;10.48;;;13.30;99.90;;;;;;5113802;27;20070;-63
2023/09/30 07:48:55;;;;;;;16.33;10.82;;;13.40;99.90;;;;;;5132127;27;20122;-63
2023/09/30 07:51:20;;;;;;;30.63;11.18;;;13.40;99.90;;;;;;5112998;27;20405;-63
2023/09/30 07:53:46;;;;;;;17.83;10.40;;;13.40;99.90;;;;;;5111466;27;20134;-63
2023/09/30 07:56:13;;;;;;;14.88;10.02;;;13.50;99.90;;;;;;5113638;27;20067;-62
2023/09/30 07:58:39;;;;;;;17.95;11.05;;;13.70;99.90;;;;;;5113437;27;20053;-64
2023/09/30 08:01:05;;;;;;;19.55;9.73;;;13.80;99.90;;;;;;5113468;27;20046;-63
2023/09/30 08:03:31;;;;;;;16.00;9.90;;;14.10;99.90;;;;;;5109759;27;20071;-63
2023/09/30 08:05:57;;;;;;;14.95;9.32;;;14.20;99.90;;;;;;5111238;27;20082;-63
2023/09/30 08:08:24;;;;;;;13.85;9.55;;;14.40;99.90;;;;;;5113297;27;20043;-62
2023/09/30 08:10:50;;;;;;;13.18;9.05;;;14.40;99.90;;;;;;5113154;27;20039;-62
2023/09/30 08:13:17;;;;;;;15.27;9.20;;;14.40;99.90;;;;;;5109950;27;20057;-63
2023/09/30 08:15:43;;;;;;;16.90;10.55;;;14.50;99.90;;;;;;5110735;27;20039;-63
2023/09/30 08:18:08;;;;;;;14.30;9.65;;;14.50;99.90;;;;;;5113007;27;20092;-63
2023/09/30 08:20:34;;;;;;;15.43;9.43;;;14.60;99.90;;;;;;5110293;27;20134;-62
2023/09/30 08:23:00;;;;;;;17.85;8.85;;;14.70;99.90;;;;;;5131086;27;20023;-62
2023/09/30 08:25:26;;;;;;;14.00;8.93;;;14.90;99.90;;;;;;5111046;27;20111;-63
2023/09/30 08:27:52;;;;;;;12.45;8.50;;;15.00;99.90;;;;;;5110951;27;20031;-63
2023/09/30 08:30:18;;;;;;;15.65;8.85;;;15.20;99.90;;;;;;5109975;27;20043;-63
2023/09/30 08:32:44;;;;;;;14.27;8.30;;;15.20;99.90;;;;;;5112726;27;20571;-63
2023/09/30 08:35:09;;;;;;;15.38;8.80;;;15.30;99.90;;;;;;5130029;27;20096;-62
2023/09/30 08:37:35;;;;;;;15.18;8.85;;;15.50;99.90;;;;;;5111318;27;20466;-63
2023/09/30 08:40:01;;;;;;;14.93;8.93;;;15.60;99.90;;;;;;5112641;27;20062;-63
2023/09/30 08:42:32;;;;;;;14.02;8.60;;;15.80;99.90;;;;;;5130826;27;20085;-62
2023/09/30 08:44:58;;;;;;;13.23;8.27;;;15.80;99.90;;;;;;5104628;27;20501;-63
2023/09/30 08:47:28;;;;;;;13.43;7.55;;;16.00;99.90;;;;;;5092224;27;20132;-62
2023/09/30 08:49:57;;;;;;;13.95;8.20;;;16.20;99.90;;;;;;5127971;27;20110;-63
2023/09/30 08:52:23;;;;;;;13.07;7.72;;;16.40;99.90;;;;;;5111111;28;20096;-63
2023/09/30 08:54:49;;;;;;;13.85;7.50;;;16.60;99.90;;;;;;5106970;27;20503;-63
2023/09/30 08:57:17;;;;;;;12.10;7.88;;;16.80;99.90;;;;;;5127264;27;20035;-63
2023/09/30 08:59:43;;;;;;;14.57;7.65;;;16.90;99.90;;;;;;5112202;28;20050;-62
2023/09/30 09:02:10;;;;;;;13.40;8.02;;;17.00;99.90;;;;;;5112052;27;20070;-63
2023/09/30 09:04:37;;;;;;;12.75;7.72;;;17.00;99.90;;;;;;5111920;27;20051;-64
2023/09/30 09:07:02;;;;;;;11.35;7.25;;;17.10;99.90;;;;;;5130397;27;20066;-63
2023/09/30 09:09:28;;;;;;;11.98;7.05;;;17.30;99.90;;;;;;5128593;27;20027;-63
2023/09/30 09:11:54;;;;;;;17.30;8.57;;;17.40;99.90;;;;;;5112036;28;20043;-62
2023/09/30 09:14:40;;;;;;;11.85;7.30;;;17.60;99.90;;;;;;5112267;28;20042;-64
2023/09/30 09:17:08;;;;;;;14.73;8.27;;;17.80;99.90;;;;;;5129182;28;20075;-63
2023/09/30 09:19:34;;;;;;;12.40;7.53;;;17.90;99.90;;;;;;5110197;28;20466;-63
2023/09/30 09:22:04;;;;;;;13.80;7.05;;;18.00;99.90;;;;;;5129474;28;20507;-63
2023/09/30 09:24:42;;;;;;;12.75;7.55;;;18.20;99.90;;;;;;5108327;28;20095;-64
2023/09/30 09:27:12;;;;;;;10.73;6.68;;;18.40;99.90;;;;;;5111693;28;20051;-64
2023/09/30 09:29:39;;;;;;;12.95;7.78;;;18.60;99.90;;;;;;5128793;28;20050;-64
2023/09/30 09:32:10;;;;;;;11.55;6.97;;;18.60;99.90;;;;;;5112205;28;20039;-64
2023/09/30 09:34:36;;;;;;;14.07;7.07;;;18.70;99.90;;;;;;5130590;28;20389;-64
2023/09/30 09:37:16;;;;;;;16.05;7.15;;;18.80;99.90;;;;;;5130553;28;20039;-64
2023/09/30 09:39:56;;;;;;;11.13;6.70;;;19.00;99.90;;;;;;5109315;28;20047;-64
2023/09/30 09:42:32;;;;;;;11.40;6.68;;;19.20;99.90;;;;;;5111060;28;20486;-63
2023/09/30 09:45:00;;;;;;;10.68;6.65;;;19.30;99.90;;;;;;5111944;28;20095;-64
2023/09/30 09:47:27;;;;;;;13.30;6.75;;;19.50;99.90;;;;;;5112068;28;20401;-64
2023/09/30 09:49:54;;;;;;;10.55;6.18;;;19.70;99.90;;;;;;5129744;28;20742;-64
2023/09/30 09:52:21;;;;;;;12.68;5.93;;;19.90;99.90;;;;;;5110645;28;20058;-64
2023/09/30 09:54:48;;;;;;;12.50;6.93;;;19.90;99.90;;;;;;5111439;28;20118;-63
2023/09/30 09:57:15;;;;;;;9.95;6.25;;;20.10;99.90;;;;;;5109617;27;20051;-64
2023/09/30 09:59:45;;;;;;;10.15;5.85;;;20.20;99.90;;;;;;5125887;27;20035;-63
2023/09/30 10:02:14;;;;;;;9.93;5.63;;;20.20;99.90;;;;;;5125078;28;20050;-63
2023/09/30 10:04:47;;;;;;;10.27;5.13;;;20.20;99.90;;;;;;5110232;28;20059;-63
2023/09/30 10:07:34;;;;;;;9.10;5.60;;;20.40;99.90;;;;;;5108777;28;20126;-64
2023/09/30 10:10:03;;;;;;;8.60;4.85;;;20.70;99.90;;;;;;5111652;28;20035;-64
2023/09/30 10:12:39;;;;;;;10.88;5.80;;;20.90;99.90;;;;;;5109060;28;20051;-64
2023/09/30 10:15:23;;;;;;;11.27;5.70;;;21.10;99.90;;;;;;5094666;28;20058;-64
2023/09/30 10:18:00;;;;;;;11.38;5.72;;;21.10;99.90;;;;;;5107836;28;20435;-63
2023/09/30 10:20:28;;;;;;;9.68;4.47;;;21.20;99.90;;;;;;5111345;28;20397;-64
2023/09/30 10:23:20;;;;;;;10.57;4.10;;;21.20;99.90;;;;;;5130160;28;20039;-63
2023/09/30 10:25:48;;;;;;;9.35;4.65;;;21.30;99.90;;;;;;5112544;27;20114;-64
2023/09/30 10:28:39;;;;;;;11.52;5.57;;;21.30;99.90;;;;;;5129802;27;20035;-64
2023/09/30 10:31:09;;;;;;;8.00;4.43;;;21.20;99.90;;;;;;5113357;27;20035;-64
2023/09/30 10:33:35;;;;;;;10.07;4.28;;;21.50;99.90;;;;;;5097367;27;20470;-64
2023/09/30 10:36:03;;;;;;;5.95;3.53;;;21.50;99.90;;;;;;5113393;27;20118;-63
2023/09/30 10:38:34;;;;;;;9.32;3.70;;;21.60;99.90;;;;;;5132440;27;20583;-63
2023/09/30 10:41:02;;;;;;;10.18;3.80;;;22.10;99.90;;;;;;5111672;27;20118;-63
2023/09/30 10:43:33;;;;;;;8.25;3.20;;;21.90;99.90;;;;;;5112121;27;20085;-63
2023/09/30 10:46:00;;;;;;;7.50;2.33;;;21.80;99.90;;;;;;5115658;27;20050;-63
2023/09/30 10:48:28;;;;;;;7.90;2.20;;;21.00;99.90;;;;;;5115416;27;20045;-64
2023/09/30 10:50:58;;;;;;;5.72;1.98;;;20.60;99.90;;;;;;5131616;27;20051;-63
2023/09/30 10:53:27;;;;;;;5.38;1.58;;;20.50;99.90;;;;;;5132323;27;20039;-63
2023/09/30 10:55:57;;;;;;;7.40;1.70;;;20.50;99.90;;;;;;5112819;27;20050;-65
2023/09/30 10:58:52;;;;;;;9.10;4.38;;;20.60;99.90;;;;;;5113520;27;20144;-64
2023/09/30 11:01:19;;;;;;;4.15;1.50;;;20.90;99.90;;;;;;5095993;27;20072;-63
2023/09/30 11:03:46;;;;;;;8.82;2.08;;;21.20;99.90;;;;;;5111324;27;20078;-63
2023/09/30 11:06:20;;;;;;;6.72;1.75;;;21.30;99.90;;;;;;5111982;27;20046;-64
2023/09/30 11:09:00;;;;;;;9.20;1.80;;;21.40;99.90;;;;;;5132872;27;20540;-63
2023/09/30 11:11:52;;;;;;;6.50;1.50;;;21.50;99.90;;;;;;5112201;27;20083;-64
2023/09/30 11:14:28;;;;;;;5.88;1.70;;;21.70;99.90;;;;;;5114216;27;20045;-63
2023/09/30 11:16:56;;;;;;;9.70;2.35;;;21.90;99.90;;;;;;5112404;27;20497;-63
2023/09/30 11:19:23;;;;;;;5.35;1.77;;;21.70;99.90;;;;;;5110013;27;20114;-63
2023/09/30 11:21:50;;;;;;;5.57;1.70;;;22.10;99.90;;;;;;5111489;27;20039;-63
2023/09/30 11:24:16;;;;;;;5.82;1.85;;;22.10;99.90;;;;;;5112268;27;20038;-63
2023/09/30 11:26:43;;;;;;;7.05;2.00;;;21.80;99.90;;;;;;5114228;27;20027;-63
2023/09/30 11:29:15;;;;;;;6.53;2.08;;;21.60;99.90;;;;;;5126656;27;20546;-63
2023/09/30 11:31:43;;;;;;;5.28;1.70;;;21.20;99.90;;;;;;5131482;27;20039;-63
2023/09/30 11:34:11;;;;;;;8.35;1.92;;;20.90;99.90;;;;;;5094230;27;20092;-63
2023/09/30 11:36:44;;;;;;;4.53;1.45;;;20.80;99.90;;;;;;5129547;27;20035;-63
2023/09/30 11:39:20;;;;;;;4.47;1.42;;;20.90;99.90;;;;;;5108857;27;20043;-62
2023/09/30 11:41:46;;;;;;;7.05;1.67;;;20.80;99.90;;;;;;5110787;27;20082;-63
2023/09/30 11:44:14;;;;;;;5.40;1.52;;;20.80;99.90;;;;;;5111862;27;20070;-62
2023/09/30 11:47:00;;;;;;;6.03;1.50;;;20.40;99.90;;;;;;5128156;27;20047;-63
2023/09/30 11:49:32;;;;;;;4.75;1.80;;;20.00;99.90;;;;;;5113652;27;20099;-62
2023/09/30 11:52:00;;;;;;;6.88;1.30;;;19.70;99.90;;;;;;5109192;27;20291;-62
2023/09/30 11:54:34;;;;;;;5.78;1.70;;;19.50;99.90;;;;;;5112618;27;20043;-62
2023/09/30 11:57:01;;;;;;;5.95;2.08;;;19.20;99.90;;;;;;5131267;27;20031;-62
2023/09/30 11:59:27;;;;;;;4.60;1.48;;;19.10;99.90;;;;;;5110867;27;20043;-62
2023/09/30 12:01:54;;;;;;;4.32;1.45;;;18.80;99.90;;;;;;5109138;27;20049;-63
2023/09/30 12:04:21;;;;;;;5.95;1.65;;;18.80;99.90;;;;;;5090791;27;20155;-63
2023/09/30 12:06:48;;;;;;;7.97;1.83;;;19.00;99.90;;;;;;5110674;27;20039;-63
2023/09/30 12:09:22;;;;;;;5.53;1.83;;;19.00;99.90;;;;;;5126241;27;20043;-62
2023/09/30 12:11:48;;;;;;;5.88;2.05;;;18.90;99.90;;;;;;5109501;27;20039;-63
2023/09/30 12:14:15;;;;;;;5.32;1.77;;;18.90;99.90;;;;;;5092457;27;20554;-62
2023/09/30 12:16:41;;;;;;;7.07;2.10;;;18.80;99.90;;;;;;5112859;27;20084;-62
2023/09/30 12:19:08;;;;;;;8.13;1.90;;;18.70;99.90;;;;;;5113380;27;20039;-62
2023/09/30 12:21:34;;;;;;;5.72;1.90;;;18.60;99.90;;;;;;5112222;27;20653;-63
2023/09/30 12:24:03;;;;;;;7.43;2.05;;;18.60;99.90;;;;;;5112986;27;20043;-64
2023/09/30 12:26:30;;;;;;;8.43;2.70;;;18.60;99.90;;;;;;5112840;27;20070;-63
2023/09/30 12:28:56;;;;;;;5.70;1.83;;;18.50;99.90;;;;;;5108237;27;20046;-63
2023/09/30 12:31:23;;;;;;;8.18;1.95;;;18.60;99.90;;;;;;5111909;27;20453;-64
2023/09/30 12:33:51;;;;;;;7.03;1.77;;;18.70;99.90;;;;;;5112728;27;20035;-64
2023/09/30 12:36:17;;;;;;;7.28;1.80;;;18.80;99.90;;;;;;5085498;27;20059;-64
2023/09/30 12:38:43;;;;;;;5.03;1.52;;;18.90;99.90;;;;;;5108906;27;20122;-63
2023/09/30 12:41:09;;;;;;;4.88;1.20;;;19.00;99.90;;;;;;5106072;27;20106;-63
2023/09/30 12:43:35;;;;;;;7.43;1.92;;;19.10;99.90;;;;;;5090778;27;20043;-65